Time;durP1;ratioP1;P1;durP2;ratioP2;P2;SDS_P1;SDS_P2;PMS_P1;PMS_P2;Temp;Humidity;BMP_temperature;BMP_pressure;BME280_temperature;BME280_humidity;BME280_pressure;Samples;Min_cycle;Max_cycle;Signal;HPM_P1;HPM_P2
2023/04/14 00:01:31;;;;;;;9.27;5.50;;;;;;;4.47;100.00;95422.16;6180561;23;20067;-83
2023/04/14 00:03:56;;;;;;;11.40;6.80;;;;;;;4.56;100.00;95420.47;6180426;23;20457;-83
2023/04/14 00:06:22;;;;;;;10.70;5.80;;;;;;;4.62;100.00;95420.72;6155292;23;20007;-83
2023/04/14 00:08:47;;;;;;;6.97;3.20;;;;;;;4.24;100.00;95421.66;6155398;23;20123;-83
2023/04/14 00:11:25;;;;;;;4.50;2.50;;;;;;;4.20;100.00;95421.13;6155552;23;20076;-83
2023/04/14 00:13:50;;;;;;;4.80;2.40;;;;;;;4.12;100.00;95417.56;6155736;23;20023;-83
2023/04/14 00:16:16;;;;;;;5.73;3.10;;;;;;;4.11;100.00;95416.75;6155971;23;20017;-83
2023/04/14 00:18:49;;;;;;;9.87;5.67;;;;;;;4.20;100.00;95417.72;6179918;23;20441;-84
2023/04/14 00:21:15;;;;;;;9.33;6.87;;;;;;;4.18;100.00;95417.84;6182790;23;20107;-83
2023/04/14 00:23:41;;;;;;;10.47;6.73;;;;;;;4.27;100.00;95423.19;6183236;23;20005;-83
2023/04/14 00:26:06;;;;;;;11.40;6.50;;;;;;;4.34;100.00;95425.06;6183679;23;20397;-81
2023/04/14 00:28:32;;;;;;;9.80;6.30;;;;;;;4.33;100.00;95431.25;6166974;23;19997;-81
2023/04/14 00:30:58;;;;;;;8.43;5.70;;;;;;;4.35;100.00;95433.69;6154215;23;20013;-82
2023/04/14 00:33:23;;;;;;;8.67;6.47;;;;;;;4.29;100.00;95431.66;6156586;23;20017;-82
2023/04/14 00:35:49;;;;;;;10.30;6.27;;;;;;;4.25;100.00;95438.91;6155816;23;20024;-80
2023/04/14 00:38:14;;;;;;;10.23;5.27;;;;;;;4.28;100.00;95440.44;6180314;23;20017;-82
2023/04/14 00:40:40;;;;;;;7.67;5.13;;;;;;;4.03;100.00;95441.84;6155784;23;20013;-82
2023/04/14 00:43:06;;;;;;;6.57;4.10;;;;;;;3.97;100.00;95448.41;6155127;23;20024;-82
2023/04/14 00:45:41;;;;;;;8.47;5.13;;;;;;;3.99;100.00;95446.47;6157834;23;20433;-82
2023/04/14 00:48:08;;;;;;;8.47;4.37;;;;;;;3.96;100.00;95455.41;6156841;23;20061;-82
2023/04/14 00:50:34;;;;;;;7.30;4.77;;;;;;;3.96;100.00;95450.19;6180887;23;20023;-81
2023/04/14 00:53:00;;;;;;;7.70;4.37;;;;;;;3.97;100.00;95449.22;6155071;23;20350;-81
2023/04/14 00:55:26;;;;;;;7.57;4.30;;;;;;;3.88;100.00;95446.63;6156601;23;20017;-81
2023/04/14 00:57:53;;;;;;;6.63;4.40;;;;;;;3.92;100.00;95448.00;6179921;23;20496;-81
2023/04/14 01:00:19;;;;;;;7.87;4.00;;;;;;;3.84;100.00;95448.69;6154875;23;20021;-81
2023/04/14 01:02:45;;;;;;;6.33;4.17;;;;;;;3.79;100.00;95458.69;6205457;23;20017;-81
2023/04/14 01:05:11;;;;;;;6.27;4.23;;;;;;;3.89;100.00;95450.88;6181139;23;20023;-82
2023/04/14 01:07:37;;;;;;;8.80;4.60;;;;;;;3.88;100.00;95452.66;6155631;23;20011;-81
2023/04/14 01:10:04;;;;;;;9.57;4.87;;;;;;;3.81;100.00;95461.97;6155298;23;20017;-81
2023/04/14 01:12:54;;;;;;;7.57;4.73;;;;;;;3.87;100.00;95453.63;6180696;23;20349;-81
2023/04/14 01:15:39;;;;;;;7.23;5.00;;;;;;;3.94;100.00;95448.69;6178897;23;20021;-82
2023/04/14 01:18:25;;;;;;;7.43;5.00;;;;;;;4.02;100.00;95451.41;6153139;23;20017;-81
2023/04/14 01:20:58;;;;;;;7.67;4.93;;;;;;;4.01;100.00;95458.41;6180182;23;20013;-81
2023/04/14 01:23:34;;;;;;;8.13;5.30;;;;;;;4.03;100.00;95452.25;6179614;23;20024;-82
2023/04/14 01:26:19;;;;;;;7.60;4.87;;;;;;;3.99;100.00;95456.88;6204940;23;20012;-81
2023/04/14 01:29:01;;;;;;;7.73;4.80;;;;;;;3.98;100.00;95456.06;6179286;23;20080;-81
2023/04/14 01:31:31;;;;;;;6.90;4.70;;;;;;;4.05;100.00;95463.31;6177943;23;20020;-81
2023/04/14 01:34:33;;;;;;;8.13;5.43;;;;;;;4.00;100.00;95463.75;6179095;23;20017;-82
2023/04/14 01:37:15;;;;;;;8.23;5.77;;;;;;;4.04;100.00;95461.69;6179206;23;20028;-81
2023/04/14 01:39:51;;;;;;;9.90;5.70;;;;;;;4.09;100.00;95462.94;6178988;23;20024;-81
2023/04/14 01:42:23;;;;;;;10.53;6.43;;;;;;;4.16;100.00;95465.81;6153329;23;20023;-82
2023/04/14 01:44:55;;;;;;;12.02;6.53;;;;;;;4.15;100.00;95464.13;6155198;23;20021;-82
2023/04/14 01:47:23;;;;;;;9.40;6.50;;;;;;;4.22;100.00;95463.44;6203706;23;20017;-82
2023/04/14 01:49:52;;;;;;;15.63;8.63;;;;;;;4.27;100.00;95459.63;6178813;23;20001;-82
2023/04/14 01:52:20;;;;;;;10.80;6.83;;;;;;;4.28;100.00;95462.06;6178130;23;20015;-82
2023/04/14 01:54:49;;;;;;;12.77;7.87;;;;;;;4.29;100.00;95462.88;6203328;23;20096;-81
2023/04/14 01:57:19;;;;;;;12.57;6.50;;;;;;;4.32;100.00;95465.22;6154533;23;20040;-82
2023/04/14 01:59:53;;;;;;;10.23;5.40;;;;;;;4.36;100.00;95464.81;6156048;23;20013;-82
2023/04/14 02:02:22;;;;;;;14.32;7.65;;;;;;;4.27;100.00;95455.22;6182146;23;20017;-82
2023/04/14 02:04:49;;;;;;;10.27;6.93;;;;;;;4.20;100.00;95457.56;6182881;23;20009;-82
2023/04/14 02:07:20;;;;;;;11.00;7.40;;;;;;;4.26;100.00;95453.59;6158326;23;20075;-82
2023/04/14 02:09:48;;;;;;;11.20;7.03;;;;;;;4.22;100.00;95457.41;6183799;23;20013;-82
2023/04/14 02:12:17;;;;;;;12.20;7.90;;;;;;;4.20;100.00;95457.56;6171684;23;20040;-83
2023/04/14 02:14:45;;;;;;;13.03;8.40;;;;;;;4.17;100.00;95452.63;6159820;23;20040;-82
2023/04/14 02:17:12;;;;;;;11.77;7.93;;;;;;;4.13;100.00;95461.69;6182656;23;20009;-82
2023/04/14 02:19:44;;;;;;;11.70;7.57;;;;;;;4.10;100.00;95455.94;6158313;23;20059;-82
2023/04/14 02:22:13;;;;;;;9.97;7.27;;;;;;;4.14;100.00;95446.88;6185065;23;20104;-82
2023/04/14 02:24:38;;;;;;;11.20;7.73;;;;;;;4.04;100.00;95453.88;6160937;23;20033;-82
2023/04/14 02:27:30;;;;;;;11.73;8.20;;;;;;;4.09;100.00;95454.28;6188137;23;20421;-82
2023/04/14 02:30:07;;;;;;;9.97;7.00;;;;;;;4.12;100.00;95452.22;6160129;23;20013;-83
2023/04/14 02:32:34;;;;;;;13.40;7.53;;;;;;;4.02;100.00;95443.59;6159334;23;20013;-82
2023/04/14 02:35:28;;;;;;;10.73;6.90;;;;;;;4.02;100.00;95446.19;6159024;23;20445;-82
2023/04/14 02:38:29;;;;;;;13.07;7.37;;;;;;;3.98;100.00;95447.44;6152607;23;20409;-82
2023/04/14 02:40:55;;;;;;;10.67;7.63;;;;;;;4.11;100.00;95458.38;6181554;23;20021;-82
2023/04/14 02:43:29;;;;;;;12.60;7.70;;;;;;;4.12;100.00;95446.19;6182913;23;20445;-82
2023/04/14 02:46:10;;;;;;;12.50;8.23;;;;;;;4.07;100.00;95451.00;6209164;23;20017;-82
2023/04/14 02:48:41;;;;;;;12.80;7.70;;;;;;;4.06;100.00;95455.41;6159054;23;20438;-81
2023/04/14 02:51:10;;;;;;;13.87;8.83;;;;;;;4.15;100.00;95462.34;6158509;23;20013;-82
2023/04/14 02:53:36;;;;;;;13.93;8.90;;;;;;;4.13;100.00;95459.09;6183196;23;20067;-81
2023/04/14 02:56:12;;;;;;;11.77;8.33;;;;;;;4.20;100.00;95461.94;6160922;23;20084;-82
2023/04/14 02:58:42;;;;;;;13.23;8.93;;;;;;;4.24;100.00;95458.09;6183430;23;20353;-82
2023/04/14 03:01:08;;;;;;;14.17;8.77;;;;;;;4.28;100.00;95454.25;6158311;23;20009;-82
2023/04/14 03:03:36;;;;;;;17.90;8.67;;;;;;;4.12;100.00;95452.22;6206394;23;20017;-82
2023/04/14 03:06:05;;;;;;;14.13;9.30;;;;;;;4.17;100.00;95450.03;6180628;23;20017;-82
2023/04/14 03:08:37;;;;;;;14.00;8.77;;;;;;;4.22;100.00;95449.59;6180309;23;20009;-82
2023/04/14 03:11:05;;;;;;;15.03;8.60;;;;;;;4.25;100.00;95449.34;6155166;23;20077;-82
2023/04/14 03:13:40;;;;;;;14.10;8.13;;;;;;;4.24;100.00;95448.50;6180150;23;20075;-82
2023/04/14 03:16:08;;;;;;;10.70;8.30;;;;;;;4.23;100.00;95446.88;6180363;23;20052;-82
2023/04/14 03:18:42;;;;;;;12.97;8.93;;;;;;;4.28;100.00;95440.44;6179975;23;20009;-82
2023/04/14 03:21:08;;;;;;;15.83;10.10;;;;;;;4.35;100.00;95434.50;6179889;23;20017;-82
2023/04/14 03:23:45;;;;;;;13.97;8.87;;;;;;;4.37;100.00;95427.41;6155807;23;20249;-82
2023/04/14 03:26:16;;;;;;;12.60;8.30;;;;;;;4.38;100.00;95431.63;6154463;23;20013;-82
2023/04/14 03:28:42;;;;;;;15.10;8.57;;;;;;;4.41;100.00;95420.13;6202303;23;20092;-82
2023/04/14 03:31:10;;;;;;;12.07;8.67;;;;;;;4.42;100.00;95419.97;6174342;23;20023;-82
2023/04/14 03:33:54;;;;;;;10.83;7.53;;;;;;;4.34;100.00;95421.66;6201129;23;20456;-81
2023/04/14 03:36:21;;;;;;;12.50;8.43;;;;;;;4.36;100.00;95425.75;6152066;23;20023;-82
2023/04/14 03:38:48;;;;;;;13.53;9.20;;;;;;;4.30;100.00;95421.13;6179234;23;20013;-81
2023/04/14 03:41:18;;;;;;;12.63;8.50;;;;;;;4.23;100.00;95430.44;6155420;23;20021;-82
2023/04/14 03:43:46;;;;;;;15.73;9.47;;;;;;;4.27;100.00;95437.00;6205531;23;20040;-82
2023/04/14 03:46:13;;;;;;;13.80;8.97;;;;;;;4.25;100.00;95433.72;6180592;23;20019;-81
2023/04/14 03:48:46;;;;;;;14.53;8.97;;;;;;;4.33;100.00;95426.03;6156656;23;20001;-81
2023/04/14 03:51:15;;;;;;;12.02;6.53;;;;;;;4.22;100.00;95436.59;6205567;23;20024;-81
2023/04/14 03:53:44;;;;;;;12.43;8.03;;;;;;;4.19;100.00;95429.91;6181280;23;20063;-82
2023/04/14 03:56:14;;;;;;;12.40;8.27;;;;;;;4.22;100.00;95434.00;6192502;23;20012;-82
2023/04/14 03:58:49;;;;;;;13.90;7.47;;;;;;;3.98;100.00;95431.84;6181513;23;20036;-82
2023/04/14 04:01:18;;;;;;;13.07;8.77;;;;;;;4.09;100.00;95428.25;6154777;23;20842;-82
2023/04/14 04:03:45;;;;;;;16.50;8.63;;;;;;;4.13;100.00;95432.25;6204191;23;20024;-82
2023/04/14 04:06:11;;;;;;;14.23;9.03;;;;;;;4.16;100.00;95431.97;6178904;23;20001;-81
2023/04/14 04:08:40;;;;;;;13.70;8.93;;;;;;;4.15;100.00;95432.91;6179919;23;20067;-82
2023/04/14 04:11:09;;;;;;;14.33;9.17;;;;;;;4.12;100.00;95433.19;6154706;23;20016;-82
2023/04/14 04:13:36;;;;;;;15.77;9.00;;;;;;;4.00;100.00;95428.16;6180259;23;20013;-82
2023/04/14 04:16:06;;;;;;;13.97;9.37;;;;;;;4.18;100.00;95430.03;6155133;23;20020;-81
2023/04/14 04:18:37;;;;;;;18.53;9.93;;;;;;;4.17;100.00;95428.41;6154718;23;20449;-82
2023/04/14 04:21:03;;;;;;;14.20;8.97;;;;;;;4.24;100.00;95434.69;6153857;23;20013;-82
2023/04/14 04:23:32;;;;;;;18.13;10.23;;;;;;;4.34;100.00;95438.09;6155683;23;20356;-82
2023/04/14 04:25:59;;;;;;;16.87;10.37;;;;;;;4.32;100.00;95428.78;6154492;23;20017;-84
2023/04/14 04:28:36;;;;;;;13.67;8.23;;;;;;;4.33;100.00;95436.47;6180693;23;20418;-83
2023/04/14 04:31:05;;;;;;;14.23;8.83;;;;;;;4.30;100.00;95435.91;6180407;23;20084;-84
2023/04/14 04:33:33;;;;;;;14.70;8.43;;;;;;;4.33;100.00;95436.47;6155743;23;20013;-84
2023/04/14 04:36:20;;;;;;;13.17;7.80;;;;;;;4.27;100.00;95442.22;6155709;23;20008;-83
2023/04/14 04:38:57;;;;;;;15.60;9.60;;;;;;;4.25;100.00;95450.16;6180016;23;20017;-84
2023/04/14 04:41:29;;;;;;;14.10;9.43;;;;;;;4.14;100.00;95447.72;6181016;23;20044;-84
2023/04/14 04:44:04;;;;;;;15.90;9.70;;;;;;;4.17;100.00;95449.22;6156639;23;20020;-83
2023/04/14 04:46:55;;;;;;;15.60;9.93;;;;;;;4.14;100.00;95446.88;6181338;23;20103;-84
2023/04/14 04:49:24;;;;;;;13.77;9.80;;;;;;;4.04;100.00;95451.28;6156535;23;20365;-83
2023/04/14 04:51:52;;;;;;;15.93;10.30;;;;;;;4.09;100.00;95454.28;6155617;23;20653;-83
2023/04/14 04:54:19;;;;;;;14.00;9.43;;;;;;;4.11;100.00;95454.97;6155803;23;20736;-84
2023/04/14 04:56:47;;;;;;;18.63;11.20;;;;;;;4.09;100.00;95452.53;6156079;23;20364;-81
2023/04/14 04:59:13;;;;;;;15.67;10.30;;;;;;;4.15;100.00;95451.13;6154703;23;20021;-84
2023/04/14 05:01:39;;;;;;;14.70;9.40;;;;;;;4.12;100.00;95449.63;6179933;23;20013;-84
2023/04/14 05:04:04;;;;;;;17.77;10.87;;;;;;;4.14;100.00;95452.91;6155575;23;20024;-84
2023/04/14 05:06:36;;;;;;;17.00;10.50;;;;;;;4.26;100.00;95445.78;6180080;23;20180;-84
2023/04/14 05:09:03;;;;;;;19.53;11.23;;;;;;;4.25;100.00;95454.53;6180529;23;20009;-86
2023/04/14 05:11:30;;;;;;;21.67;14.73;;;;;;;4.39;100.00;95461.94;6179572;23;20017;-85
2023/04/14 05:13:56;;;;;;;22.43;12.43;;;;;;;4.16;100.00;95464.00;6179704;23;20013;-83
2023/04/14 05:16:22;;;;;;;16.60;11.00;;;;;;;4.24;100.00;95476.31;6155522;23;20040;-85
2023/04/14 05:18:48;;;;;;;19.00;10.93;;;;;;;4.34;100.00;95482.34;6155336;23;20012;-86
2023/04/14 05:21:14;;;;;;;20.57;10.20;;;;;;;4.13;100.00;95487.72;6154399;23;20373;-85
2023/04/14 05:23:42;;;;;;;14.40;9.37;;;;;;;3.85;100.00;95493.72;6155237;23;20024;-85
2023/04/14 05:26:09;;;;;;;16.93;9.47;;;;;;;3.92;100.00;95495.66;6179779;23;20027;-85
2023/04/14 05:28:35;;;;;;;14.10;8.87;;;;;;;4.01;100.00;95502.63;6155863;23;20036;-85
2023/04/14 05:31:01;;;;;;;14.53;8.50;;;;;;;4.12;100.00;95508.66;6155914;23;20092;-85
2023/04/14 05:33:34;;;;;;;20.10;8.93;;;;;;;3.97;100.00;95513.44;6182686;23;20098;-85
2023/04/14 05:36:00;;;;;;;15.48;10.00;;;;;;;3.85;100.00;95510.13;6159154;23;20055;-85
2023/04/14 05:38:26;;;;;;;16.27;10.40;;;;;;;3.98;100.00;95520.28;6200553;23;20016;-86
2023/04/14 05:40:55;;;;;;;14.27;9.47;;;;;;;4.13;100.00;95523.31;6185799;23;20005;-86
2023/04/14 05:43:20;;;;;;;15.10;10.00;;;;;;;4.22;100.00;95532.88;6156391;23;20021;-85
2023/04/14 05:45:46;;;;;;;20.27;9.57;;;;;;;4.22;100.00;95533.69;6181700;23;20341;-84
2023/04/14 05:48:16;;;;;;;12.23;8.53;;;;;;;4.25;100.00;95532.63;6181360;23;20004;-85
2023/04/14 05:50:49;;;;;;;15.83;9.97;;;;;;;4.33;100.00;95539.75;6160114;23;20024;-85
2023/04/14 05:53:15;;;;;;;14.55;8.45;;;;;;;4.37;100.00;95547.13;6181990;23;20013;-87
2023/04/14 05:55:41;;;;;;;15.00;9.37;;;;;;;4.43;100.00;95538.78;6157963;23;20051;-87
2023/04/14 05:58:06;;;;;;;14.83;9.30;;;;;;;4.43;100.00;95535.38;6184258;23;20016;-87
2023/04/14 06:01:16;;;;;;;14.67;8.83;;;;;;;4.40;100.00;95539.06;6182810;23;20048;-87
2023/04/14 06:19:00;;;;;;;13.03;8.73;;;;;;;5.35;100.00;95530.28;6144886;23;20039;-86
2023/04/14 06:33:04;;;;;;;13.87;7.43;;;;;;;6.56;100.00;95484.66;6184003;23;20071;-87
2023/04/14 06:35:30;;;;;;;15.37;7.50;;;;;;;6.70;100.00;95485.91;6208038;23;20036;-84
2023/04/14 06:38:29;;;;;;;11.93;7.47;;;;;;;7.39;100.00;95476.28;6182858;23;20047;-87
2023/04/14 06:41:35;;;;;;;12.82;7.32;;;;;;;7.73;100.00;95460.53;6159010;23;20075;-85
2023/04/14 06:44:33;;;;;;;12.57;8.43;;;;;;;8.13;100.00;95451.06;6136847;23;20096;-85
2023/04/14 06:47:00;;;;;;;12.20;7.13;;;;;;;7.59;100.00;95450.69;6158272;23;20437;-85
2023/04/14 06:49:25;;;;;;;12.13;6.93;;;;;;;7.90;100.00;95450.09;6157792;23;20005;-84
2023/04/14 06:51:54;;;;;;;10.17;6.23;;;;;;;8.43;100.00;95452.25;6181536;23;20013;-84
2023/04/14 06:54:20;;;;;;;12.37;5.97;;;;;;;9.19;100.00;95443.06;6157256;23;20013;-85
2023/04/14 06:56:45;;;;;;;15.40;6.47;;;;;;;9.01;100.00;95447.72;6157356;23;20005;-84
2023/04/14 06:59:26;;;;;;;10.23;5.23;;;;;;;9.06;100.00;95437.56;6181770;23;20001;-84
2023/04/14 07:01:52;;;;;;;11.47;6.30;;;;;;;9.18;100.00;95438.78;6157189;23;20044;-85
2023/04/14 07:04:36;;;;;;;12.70;6.00;;;;;;;9.61;100.00;95433.19;6207653;23;20013;-84
2023/04/14 07:07:02;;;;;;;10.57;6.57;;;;;;;10.42;100.00;95423.94;6156556;23;20063;-84
2023/04/14 07:09:28;;;;;;;13.47;6.53;;;;;;;11.03;100.00;95421.19;6157455;23;20013;-85
2023/04/14 07:11:55;;;;;;;10.50;5.57;;;;;;;9.90;100.00;95422.03;6181273;23;20023;-84
2023/04/14 07:14:22;;;;;;;12.23;6.37;;;;;;;10.88;100.00;95418.56;6181645;23;20071;-85
2023/04/14 07:16:50;;;;;;;10.80;6.60;;;;;;;11.29;100.00;95426.78;6157966;23;20023;-84
2023/04/14 07:19:16;;;;;;;10.07;6.13;;;;;;;11.65;100.00;95420.75;6158519;23;20015;-85
2023/04/14 07:21:44;;;;;;;9.63;5.60;;;;;;;10.96;100.00;95428.97;6183946;23;20096;-84
2023/04/14 07:24:10;;;;;;;11.53;4.80;;;;;;;10.41;100.00;95437.25;6177793;23;20028;-84
2023/04/14 07:26:35;;;;;;;9.83;4.97;;;;;;;11.43;100.00;95426.94;6182038;23;20009;-84
2023/04/14 07:29:03;;;;;;;9.93;4.40;;;;;;;10.74;100.00;95422.81;6157114;23;20037;-85
2023/04/14 07:31:32;;;;;;;9.40;4.30;;;;;;;11.79;100.00;95426.97;6181177;23;20083;-85
2023/04/14 07:33:58;;;;;;;9.30;4.17;;;;;;;11.94;100.00;95429.59;6156503;23;20036;-84
2023/04/14 07:36:24;;;;;;;10.43;4.23;;;;;;;11.24;100.00;95437.06;6205533;23;20036;-85
2023/04/14 07:39:01;;;;;;;8.83;4.40;;;;;;;11.33;100.00;95432.50;6155914;23;20039;-83
2023/04/14 07:41:27;;;;;;;8.53;3.87;;;;;;;11.39;100.00;95426.50;6156284;23;20668;-84
2023/04/14 07:43:57;;;;;;;8.83;3.40;;;;;;;11.41;100.00;95431.59;6156954;23;20017;-85
2023/04/14 07:46:23;;;;;;;8.40;3.67;;;;;;;11.88;100.00;95433.78;6156455;23;20012;-84
2023/04/14 07:48:49;;;;;;;9.40;4.40;;;;;;;11.55;100.00;95426.31;6181673;23;20020;-84
2023/04/14 07:51:16;;;;;;;12.37;3.93;;;;;;;11.94;100.00;95434.88;6181268;23;20012;-85
2023/04/14 07:53:43;;;;;;;9.93;3.97;;;;;;;12.07;100.00;95421.00;6180885;23;20013;-84
2023/04/14 07:56:10;;;;;;;7.77;3.30;;;;;;;12.11;100.00;95417.81;6181565;23;20692;-85
2023/04/14 07:58:50;;;;;;;8.83;3.53;;;;;;;11.53;100.00;95423.03;6181265;23;20024;-85
2023/04/14 08:01:16;;;;;;;9.50;3.80;;;;;;;13.30;100.00;95423.13;6181020;23;20027;-84
2023/04/14 08:03:42;;;;;;;9.20;3.60;;;;;;;12.69;100.00;95426.38;6156821;23;20013;-84
2023/04/14 08:06:07;;;;;;;8.13;2.93;;;;;;;13.30;100.00;95427.59;6155492;23;20079;-84
2023/04/14 08:08:42;;;;;;;9.70;2.53;;;;;;;12.44;100.00;95425.16;6155877;23;20009;-84
2023/04/14 08:11:07;;;;;;;9.23;2.33;;;;;;;13.47;100.00;95420.16;6207095;23;20020;-84
2023/04/14 08:13:33;;;;;;;8.20;2.33;;;;;;;12.95;100.00;95417.84;6183679;23;20009;-84
2023/04/14 08:15:59;;;;;;;9.03;3.33;;;;;;;14.06;100.00;95409.75;6156570;23;20017;-84
2023/04/14 08:18:24;;;;;;;10.37;3.67;;;;;;;13.47;100.00;95412.22;6181030;23;20021;-84
2023/04/14 08:20:50;;;;;;;8.40;2.50;;;;;;;13.53;100.00;95414.91;6206977;23;20606;-84
2023/04/14 08:23:19;;;;;;;10.67;2.57;;;;;;;14.06;100.00;95416.88;6180620;23;20099;-84
2023/04/14 08:25:46;;;;;;;7.73;2.60;;;;;;;14.44;100.00;95417.13;6181719;23;20286;-84
2023/04/14 08:28:20;;;;;;;6.90;2.67;;;;;;;15.35;100.00;95410.28;6181551;23;20013;-84
2023/04/14 08:30:48;;;;;;;8.07;2.53;;;;;;;14.66;100.00;95398.44;6180619;23;20783;-85
2023/04/14 08:33:13;;;;;;;8.33;2.27;;;;;;;14.19;100.00;95408.97;6180503;23;20657;-84
2023/04/14 08:35:39;;;;;;;8.07;2.50;;;;;;;13.28;100.00;95414.59;6203924;23;20040;-84
2023/04/14 08:38:05;;;;;;;5.83;2.27;;;;;;;14.76;100.00;95399.66;6177929;23;20039;-84
2023/04/14 08:40:41;;;;;;;8.00;2.23;;;;;;;15.70;100.00;95397.56;6176330;23;20016;-84
2023/04/14 08:43:09;;;;;;;8.23;2.77;;;;;;;15.54;100.00;95396.16;6153179;23;20020;-85
2023/04/14 08:45:35;;;;;;;8.63;2.77;;;;;;;15.09;100.00;95404.88;6153849;23;20079;-84
2023/04/14 08:48:02;;;;;;;8.85;2.60;;;;;;;16.07;100.00;95406.53;6155774;23;20512;-84
2023/04/14 08:50:44;;;;;;;11.57;2.47;;;;;;;15.81;100.00;95406.69;6181354;23;20070;-84
2023/04/14 08:53:12;;;;;;;6.82;2.33;;;;;;;15.79;100.00;95401.56;6155508;23;20013;-85
2023/04/14 08:55:42;;;;;;;10.63;3.33;;;;;;;13.82;100.00;95411.16;6206150;23;20048;-86
2023/04/14 08:58:10;;;;;;;8.70;3.00;;;;;;;13.06;100.00;95418.31;6181132;23;20394;-85
2023/04/14 09:00:38;;;;;;;8.73;2.90;;;;;;;15.84;100.00;95395.66;6156315;23;20017;-85
2023/04/14 09:03:12;;;;;;;7.03;2.15;;;;;;;13.57;100.00;95412.69;6207265;23;20214;-85
2023/04/14 09:05:40;;;;;;;8.90;2.77;;;;;;;12.71;100.00;95413.03;6157847;23;20020;-85
2023/04/14 09:08:06;;;;;;;8.53;2.60;;;;;;;13.87;100.00;95413.19;6176484;23;19993;-85
2023/04/14 09:10:50;;;;;;;8.40;3.20;;;;;;;13.79;100.00;95416.81;6180589;23;20445;-85
2023/04/14 09:13:30;;;;;;;5.97;2.43;;;;;;;14.51;100.00;95414.50;6155114;23;20013;-85
2023/04/14 09:15:56;;;;;;;8.37;2.97;;;;;;;13.84;100.00;95418.84;6180347;23;20047;-85
2023/04/14 09:18:24;;;;;;;11.17;3.53;;;;;;;14.87;100.00;95406.13;6180423;23;20009;-85
2023/04/14 09:20:51;;;;;;;7.03;2.38;;;;;;;14.77;100.00;95406.56;6180903;23;20096;-85
2023/04/14 09:23:20;;;;;;;5.18;1.92;;;;;;;13.96;100.00;95419.91;6180137;23;20017;-85
2023/04/14 09:25:46;;;;;;;7.63;2.20;;;;;;;13.49;100.00;95411.03;6155805;23;20096;-85
2023/04/14 09:28:12;;;;;;;8.27;2.73;;;;;;;12.88;100.00;95414.34;6181968;23;20043;-85
2023/04/14 09:30:39;;;;;;;8.77;2.60;;;;;;;12.27;100.00;95414.91;6181401;23;20013;-84
2023/04/14 09:33:17;;;;;;;9.53;2.70;;;;;;;12.38;100.00;95418.84;6206006;23;20024;-85
2023/04/14 09:35:46;;;;;;;9.00;3.33;;;;;;;12.10;100.00;95423.25;6155539;23;20071;-85
2023/04/14 09:38:12;;;;;;;10.37;2.73;;;;;;;13.39;100.00;95421.97;6180342;23;20012;-85
2023/04/14 09:40:47;;;;;;;9.63;3.07;;;;;;;13.49;100.00;95407.59;6155246;23;20008;-85
2023/04/14 09:43:28;;;;;;;8.83;2.53;;;;;;;13.87;100.00;95414.00;6155155;23;20013;-85
2023/04/14 09:46:16;;;;;;;7.77;2.37;;;;;;;13.65;100.00;95417.81;6181251;23;20019;-85
2023/04/14 09:48:59;;;;;;;10.57;2.70;;;;;;;14.08;100.00;95406.91;6156106;23;20743;-85
2023/04/14 09:51:31;;;;;;;5.63;1.55;;;;;;;13.71;100.00;95411.69;6180764;23;20016;-85
2023/04/14 09:54:04;;;;;;;5.90;2.00;;;;;;;14.92;100.00;95405.50;6180417;23;20072;-85
2023/04/14 09:56:30;;;;;;;7.18;2.85;;;;;;;14.53;100.00;95401.91;6155982;23;20357;-86
2023/04/14 09:59:02;;;;;;;6.30;2.23;;;;;;;15.39;100.00;95401.75;6154469;23;19997;-84
2023/04/14 10:01:30;;;;;;;7.07;1.90;;;;;;;16.15;100.00;95398.31;6180144;23;20013;-85
2023/04/14 10:03:56;;;;;;;10.15;2.20;;;;;;;14.79;100.00;95404.53;6180634;23;20017;-85
2023/04/14 10:06:23;;;;;;;5.03;1.90;;;;;;;15.29;100.00;95396.88;6205490;23;20040;-85
2023/04/14 10:08:54;;;;;;;5.97;1.65;;;;;;;14.82;100.00;95387.41;6180673;23;20369;-85
2023/04/14 10:11:34;;;;;;;6.65;2.38;;;;;;;15.12;100.00;95373.69;6155205;23;20024;-85
2023/04/14 10:14:05;;;;;;;9.40;1.92;;;;;;;16.10;100.00;95368.16;6180745;23;20013;-85
2023/04/14 10:16:32;;;;;;;10.05;3.15;;;;;;;15.03;100.00;95373.13;6155297;23;20017;-85
2023/04/14 10:18:58;;;;;;;6.20;1.52;;;;;;;14.32;100.00;95366.66;6180158;23;20008;-85
2023/04/14 10:21:31;;;;;;;6.00;1.80;;;;;;;14.52;100.00;95365.84;6155876;23;20009;-85
2023/04/14 10:23:57;;;;;;;;;;;;;;;14.71;100.00;95358.94;6181074;23;20017;-86
2023/04/14 10:26:22;;;;;;;7.22;1.92;;;;;;;14.46;100.00;95354.25;6156022;23;19923;-84
2023/04/14 10:28:50;;;;;;;6.88;1.67;;;;;;;14.46;100.00;95356.09;6180512;23;20024;-85
2023/04/14 10:31:47;;;;;;;6.03;1.95;;;;;;;14.61;100.00;95354.06;6155099;23;20660;-85
2023/04/14 10:34:14;;;;;;;7.60;2.22;;;;;;;14.55;100.00;95355.72;6205970;23;20013;-85
2023/04/14 10:36:41;;;;;;;4.63;1.70;;;;;;;14.17;100.00;95342.25;6155659;23;20100;-85
2023/04/14 10:39:08;;;;;;;7.22;2.40;;;;;;;13.81;100.00;95343.44;6180264;23;20013;-86
2023/04/14 10:41:47;;;;;;;6.53;2.13;;;;;;;13.40;100.00;95339.06;6179908;23;20032;-85
2023/04/14 10:44:31;;;;;;;6.37;1.63;;;;;;;15.14;100.00;95337.22;6206799;23;20017;-84
2023/04/14 10:47:04;;;;;;;;;;;;;;;14.94;100.00;95342.59;6184362;23;20040;-84
2023/04/14 10:49:35;;;;;;;5.10;1.00;;;;;;;15.26;100.00;95346.97;6183344;23;19908;-84
2023/04/14 10:52:24;;;;;;;6.03;2.08;;;;;;;15.18;100.00;95354.31;6175777;23;20076;-84
2023/04/14 10:55:08;;;;;;;7.45;1.55;;;;;;;16.60;100.00;95342.44;6161754;23;20012;-87
2023/04/14 10:57:42;;;;;;;8.10;1.58;;;;;;;17.05;96.30;95342.22;6157872;23;20021;-86
2023/04/14 11:00:23;;;;;;;10.15;2.25;;;;;;;16.45;93.20;95323.38;6158058;23;20020;-85
2023/04/14 11:02:54;;;;;;;6.30;1.65;;;;;;;16.00;100.00;95334.16;6157667;23;20118;-85
2023/04/14 11:05:20;;;;;;;6.50;2.00;;;;;;;15.66;100.00;95341.50;6183093;23;20088;-85
2023/04/14 11:07:48;;;;;;;9.30;2.38;;;;;;;17.39;95.40;95337.31;6182574;23;20009;-85
2023/04/14 11:10:25;;;;;;;8.60;2.00;;;;;;;16.73;100.00;95339.66;6182525;23;20015;-85
2023/04/14 11:13:04;;;;;;;5.70;1.30;;;;;;;17.65;91.41;95329.00;6156940;23;20013;-86
2023/04/14 11:15:50;;;;;;;6.10;2.13;;;;;;;16.85;92.81;95328.34;6158398;23;20039;-86
2023/04/14 11:18:34;;;;;;;9.30;2.15;;;;;;;15.38;100.00;95328.56;6183806;23;20017;-86
2023/04/14 11:21:05;;;;;;;7.05;1.80;;;;;;;14.60;100.00;95333.91;6182617;23;20009;-86
2023/04/14 11:23:33;;;;;;;5.18;1.52;;;;;;;14.76;100.00;95344.06;6182836;23;20358;-86
2023/04/14 11:25:59;;;;;;;5.95;1.63;;;;;;;14.06;100.00;95334.94;6157422;23;20005;-85
2023/04/14 11:28:37;;;;;;;6.03;1.88;;;;;;;14.33;100.00;95335.75;6158020;23;20028;-86
2023/04/14 11:31:05;;;;;;;6.65;1.90;;;;;;;14.44;100.00;95339.59;6157516;23;20009;-85
2023/04/14 11:33:37;;;;;;;7.07;2.53;;;;;;;14.29;100.00;95335.34;6182447;23;20009;-86
2023/04/14 11:36:04;;;;;;;5.85;1.83;;;;;;;13.79;100.00;95337.53;6207225;23;20021;-90
2023/04/14 11:38:42;;;;;;;7.75;1.70;;;;;;;14.77;100.00;95335.09;6183730;23;20079;-90
2023/04/14 11:41:14;;;;;;;8.40;2.30;;;;;;;14.61;100.00;95338.19;6156373;23;20103;-83
2023/04/14 11:43:45;;;;;;;6.85;2.47;;;;;;;13.28;100.00;95339.84;6205216;23;20015;-86
2023/04/14 11:46:11;;;;;;;4.28;1.52;;;;;;;13.57;100.00;95338.72;6157762;23;20013;-85
2023/04/14 11:48:45;;;;;;;4.72;1.38;;;;;;;14.57;100.00;95321.91;6185360;23;20063;-89
2023/04/14 11:51:26;;;;;;;4.93;1.70;;;;;;;14.44;100.00;95316.59;6160564;23;20441;-90
2023/04/14 11:53:56;;;;;;;13.60;4.27;;;;;;;14.63;100.00;95316.81;6158545;23;20095;-89
2023/04/14 11:56:21;;;;;;;12.67;6.00;;;;;;;14.11;100.00;95317.44;6158524;23;20019;-90
2023/04/14 11:59:02;;;;;;;10.97;4.00;;;;;;;14.75;100.00;95318.59;6183124;23;20017;-90
2023/04/14 12:02:08;;;;;;;;;;;;;;;;;;;;;
2023/04/14 12:04:50;;;;;;;9.23;2.05;;;;;;;14.79;100.00;95303.16;6128436;23;20482;-83
2023/04/14 12:07:33;;;;;;;;;;;;;;;;;;;;;
2023/04/14 12:10:55;;;;;;;8.57;2.30;;;;;;;15.72;100.00;95284.97;6196031;23;20433;-87
2023/04/14 12:13:22;;;;;;;9.00;2.50;;;;;;;16.06;98.79;95274.94;6157028;23;20093;-86
2023/04/14 12:15:50;;;;;;;8.02;2.33;;;;;;;16.18;99.43;95286.47;6157847;23;20091;-88